Washington, Kentucky
Current Conditions -  °F | °C
As of 3:35 AM on Saturday 22 Nov 2014 (Local Time) from KFGX Reporting Station
Overcast Overcast  
Wind Chill: 24°   Ceiling: 8000
Heat Index: 31°   Visibility: 10mi
Dew Point: 18°   Wind: 7mph
Humidity: 60%   Direction: 170°S
Pressure: 30.35"   Gusts: NA
Location:  38.62°N, 83.81°W
Report Text: KFGX 220835Z AUTO 17006KT 10SM OVC080 M01/M08 A3035 RMK AO2 T10081076
Loading
Personal Weather Stations






























Interactive Weather Map New forecast layout! Learn more

10-Day Weather Forecast

Advertisements
Track Severe Weather on mobile